createdAt,value
2023-02-09T00:02:02.612Z,-1.87
2023-02-09T00:07:03.736Z,-1.87
2023-02-09T00:12:23.777Z,-1.89
2023-02-09T00:17:24.484Z,-2.00
2023-02-09T00:22:25.154Z,-2.01
2023-02-09T00:27:27.172Z,-1.98
2023-02-09T00:32:27.873Z,-1.92
2023-02-09T00:37:28.590Z,-1.96
2023-02-09T00:42:30.595Z,-1.86
2023-02-09T00:47:31.256Z,-1.92
2023-02-09T00:52:31.925Z,-1.89
2023-02-09T00:57:33.933Z,-1.85
2023-02-09T01:02:34.720Z,-1.87
2023-02-09T01:07:35.710Z,-1.92
2023-02-09T01:12:40.173Z,-1.91
2023-02-09T01:17:41.072Z,-1.82
2023-02-09T01:22:41.860Z,-1.78
2023-02-09T01:27:43.867Z,-1.75
2023-02-09T01:32:44.971Z,-1.65
2023-02-09T01:37:46.720Z,-1.77
2023-02-09T01:42:50.185Z,-1.71
2023-02-09T01:47:56.402Z,-1.83
2023-02-09T01:52:58.956Z,-1.85
2023-02-09T01:58:10.076Z,-1.80
2023-02-09T02:03:15.319Z,-1.89
2023-02-09T02:08:20.206Z,-1.91
2023-02-09T02:13:22.543Z,-1.97
2023-02-09T02:18:39.514Z,-1.96
2023-02-09T02:23:49.358Z,-2.06
2023-02-09T02:29:17.279Z,-2.12
2023-02-09T02:34:24.138Z,-2.03
2023-02-09T02:39:30.189Z,-2.18
2023-02-09T02:44:32.933Z,-2.17
2023-02-09T02:49:42.051Z,-2.11
2023-02-09T02:54:47.516Z,-2.06
2023-02-09T02:59:54.025Z,-2.00
2023-02-09T03:04:59.913Z,-2.01
2023-02-09T03:10:03.108Z,-2.05
2023-02-09T03:15:16.355Z,-2.04
2023-02-09T03:20:27.054Z,-2.03
2023-02-09T03:25:32.852Z,-2.00
2023-02-09T03:30:35.269Z,-2.21
2023-02-09T03:35:40.580Z,-2.14
2023-02-09T03:40:41.319Z,-2.27
2023-02-09T03:45:41.997Z,-2.28
2023-02-09T03:50:44.350Z,-2.12
2023-02-09T03:55:47.265Z,-2.16
2023-02-09T04:00:48.025Z,-2.11
2023-02-09T04:05:50.044Z,-2.19
2023-02-09T04:10:50.736Z,-2.30
2023-02-09T04:15:51.623Z,-2.35
2023-02-09T04:20:53.730Z,-2.30
2023-02-09T04:25:54.403Z,-2.32
2023-02-09T04:30:55.986Z,-2.36
2023-02-09T04:35:58.369Z,-2.33
2023-02-09T04:41:01.585Z,-2.42
2023-02-09T04:46:02.423Z,-2.55
2023-02-09T04:51:04.738Z,-2.51
2023-02-09T04:56:06.316Z,-2.58
2023-02-09T05:01:08.266Z,-2.87
2023-02-09T05:06:10.418Z,-3.21
2023-02-09T05:11:11.491Z,-3.36
2023-02-09T05:16:15.901Z,-3.47
2023-02-09T05:21:17.973Z,-3.59
2023-02-09T05:26:18.665Z,-3.71
2023-02-09T05:31:19.428Z,-3.87
2023-02-09T05:36:21.518Z,-4.13
2023-02-09T05:41:36.187Z,-4.27
2023-02-09T05:46:36.870Z,-4.61
2023-02-09T05:51:38.896Z,-4.69
2023-02-09T05:56:40.772Z,-4.46
2023-02-09T06:01:41.440Z,-4.39
2023-02-09T06:06:43.495Z,-4.64
2023-02-09T06:11:44.212Z,-4.69
2023-02-09T06:16:45.241Z,-4.62
2023-02-09T06:21:47.691Z,-4.73
2023-02-09T06:26:48.377Z,-4.66
2023-02-09T06:31:49.194Z,-4.80
2023-02-09T06:36:51.216Z,-4.77
2023-02-09T06:41:52.373Z,-4.78
2023-02-09T06:46:53.039Z,-4.79
2023-02-09T06:51:55.077Z,-4.82
2023-02-09T06:56:56.020Z,-4.84
2023-02-09T07:01:56.713Z,-4.84
2023-02-09T07:06:58.749Z,-4.88
2023-02-09T07:11:59.429Z,-4.89
2023-02-09T07:17:00.175Z,-4.74
2023-02-09T07:22:02.156Z,-4.55
2023-02-09T07:27:02.796Z,-4.52
2023-02-09T07:32:03.600Z,-4.03
2023-02-09T07:37:06.171Z,-4.26
2023-02-09T07:42:07.007Z,-4.25
2023-02-09T07:47:21.993Z,-4.23
2023-02-09T07:52:24.004Z,-4.29
2023-02-09T07:57:24.649Z,-4.01
2023-02-09T08:02:30.252Z,-3.95
2023-02-09T08:07:32.804Z,-3.87
2023-02-09T08:12:47.590Z,-3.74
2023-02-09T08:17:48.829Z,-3.53
2023-02-09T08:22:55.401Z,-3.55
2023-02-09T08:27:57.079Z,-3.59
2023-02-09T08:32:57.812Z,-3.38
2023-02-09T08:38:02.389Z,-3.13
2023-02-09T08:43:03.102Z,-2.93
2023-02-09T08:48:03.932Z,-2.81
2023-02-09T08:53:06.501Z,-2.66
2023-02-09T08:58:07.727Z,-2.48
2023-02-09T09:03:08.397Z,-2.35
2023-02-09T09:08:10.431Z,-2.29
2023-02-09T09:13:11.096Z,-2.11
2023-02-09T09:18:12.988Z,-1.86
2023-02-09T09:23:15.636Z,-1.62
2023-02-09T09:28:16.785Z,-1.46
2023-02-09T09:33:17.617Z,-1.44
2023-02-09T09:38:19.796Z,-1.10
2023-02-09T09:43:25.641Z,-1.02
2023-02-09T09:48:28.149Z,-0.83
2023-02-09T09:53:33.508Z,-0.71
2023-02-09T09:58:35.568Z,-0.57
2023-02-09T10:03:36.300Z,-0.49
2023-02-09T10:08:44.753Z,-0.34
2023-02-09T10:13:49.513Z,-0.12
2023-02-09T10:18:54.780Z,-0.09
2023-02-09T10:24:13.922Z,0.09
2023-02-09T10:29:25.160Z,0.25
2023-02-09T10:34:32.802Z,0.54
2023-02-09T10:39:36.744Z,1.02
2023-02-09T10:44:51.281Z,0.98
2023-02-09T10:49:54.933Z,1.11
2023-02-09T10:54:59.929Z,1.22
2023-02-09T11:00:04.422Z,1.44
2023-02-09T11:05:32.700Z,1.55
2023-02-09T11:10:39.985Z,1.70
2023-02-09T11:15:48.859Z,1.83
2023-02-09T11:20:53.110Z,1.96
2023-02-09T11:26:01.995Z,2.06
2023-02-09T11:31:24.989Z,2.20
2023-02-09T11:36:41.891Z,2.25
2023-02-09T11:42:07.433Z,2.43
2023-02-09T11:47:12.084Z,2.58
2023-02-09T11:52:18.262Z,2.59
2023-02-09T11:57:29.596Z,2.72
2023-02-09T12:02:46.156Z,2.79
2023-02-09T12:08:07.883Z,2.88
2023-02-09T12:13:24.074Z,2.97
2023-02-09T12:18:27.572Z,3.06
2023-02-09T12:23:32.874Z,3.07
2023-02-09T12:28:45.285Z,3.17
2023-02-09T12:34:11.488Z,3.18
2023-02-09T12:39:24.258Z,3.25
2023-02-09T12:44:39.854Z,3.22
2023-02-09T12:49:40.976Z,3.33
2023-02-09T12:54:44.860Z,3.26
2023-02-09T13:00:28.856Z,3.23
2023-02-09T13:05:33.680Z,3.30
2023-02-09T13:10:40.190Z,3.23
2023-02-09T13:15:53.861Z,3.34
2023-02-09T13:21:13.998Z,3.31
2023-02-09T13:26:22.009Z,3.28
2023-02-09T13:31:37.287Z,3.26
2023-02-09T13:36:47.345Z,3.31
2023-02-09T13:41:50.015Z,3.29
2023-02-09T13:46:59.932Z,3.11
2023-02-09T13:52:15.486Z,3.29
2023-02-09T13:57:29.477Z,3.23
2023-02-09T14:02:31.613Z,3.21
2023-02-09T14:07:34.902Z,3.07
2023-02-09T14:12:52.529Z,3.08
2023-02-09T14:17:56.301Z,2.90
2023-02-09T14:22:59.120Z,2.89
2023-02-09T14:27:59.961Z,2.86
2023-02-09T14:33:03.447Z,2.80
2023-02-09T14:38:04.990Z,2.73
2023-02-09T14:43:24.916Z,2.64
2023-02-09T14:48:28.675Z,2.68
2023-02-09T14:53:31.920Z,2.62
2023-02-09T14:58:33.616Z,2.55
2023-02-09T15:03:35.633Z,2.54
2023-02-09T15:08:38.978Z,2.38
2023-02-09T15:13:40.113Z,2.26
2023-02-09T15:18:42.177Z,2.18
2023-02-09T15:23:42.873Z,2.06
2023-02-09T15:28:44.128Z,1.97
2023-02-09T15:33:46.133Z,1.88
2023-02-09T15:38:46.990Z,1.73
2023-02-09T15:44:05.486Z,1.54
2023-02-09T15:49:07.613Z,1.42
2023-02-09T15:54:13.505Z,1.32
2023-02-09T15:59:18.858Z,1.13
2023-02-09T16:04:20.965Z,0.92
2023-02-09T16:09:26.658Z,0.73
2023-02-09T16:14:28.353Z,0.52
2023-02-09T16:19:30.568Z,0.26
2023-02-09T16:24:34.610Z,0.22
2023-02-09T16:29:35.368Z,0.20
2023-02-09T16:34:37.367Z,0.07
2023-02-09T16:39:38.071Z,0.08
2023-02-09T16:44:38.716Z,0.01
2023-02-09T16:49:42.501Z,0.02
2023-02-09T16:54:45.798Z,0.02
2023-02-09T16:59:46.807Z,-0.07
2023-02-09T17:04:48.889Z,-0.23
2023-02-09T17:09:49.653Z,-0.23
2023-02-09T17:14:50.327Z,-0.30
2023-02-09T17:20:00.747Z,-0.34
2023-02-09T17:25:01.633Z,-0.47
2023-02-09T17:30:02.341Z,-0.65
2023-02-09T17:35:04.569Z,-0.63
2023-02-09T17:40:05.779Z,-0.61
2023-02-09T17:45:11.678Z,-0.63
2023-02-09T17:50:13.714Z,-0.67
2023-02-09T17:55:26.564Z,-0.78
2023-02-09T18:00:28.781Z,-0.73
2023-02-09T18:05:34.800Z,-0.79
2023-02-09T18:10:36.089Z,-0.81
2023-02-09T18:15:40.458Z,-0.86
2023-02-09T18:20:42.859Z,-0.88
2023-02-09T18:25:43.806Z,-0.99
2023-02-09T18:30:45.357Z,-0.97
2023-02-09T18:35:47.725Z,-1.07
2023-02-09T18:40:48.584Z,-1.00
2023-02-09T18:45:49.569Z,-1.14
2023-02-09T18:50:53.002Z,-1.17
2023-02-09T18:55:54.380Z,-1.12
2023-02-09T19:00:55.181Z,-1.20
2023-02-09T19:05:57.206Z,-1.09
2023-02-09T19:10:57.895Z,-1.16
2023-02-09T19:15:58.653Z,-1.17
2023-02-09T19:21:04.770Z,-1.18
2023-02-09T19:26:06.598Z,-1.15
2023-02-09T19:31:11.704Z,-1.19
2023-02-09T19:36:13.763Z,-1.19
2023-02-09T19:41:14.450Z,-1.24
2023-02-09T19:46:15.227Z,-1.17
2023-02-09T19:51:17.345Z,-1.12
2023-02-09T19:56:20.807Z,-1.19
2023-02-09T20:01:22.023Z,-1.26
2023-02-09T20:06:24.929Z,-1.30
2023-02-09T20:11:25.657Z,-1.25
2023-02-09T20:16:28.364Z,-1.23
2023-02-09T20:21:30.455Z,-1.47
2023-02-09T20:26:33.079Z,-1.34
2023-02-09T20:31:36.826Z,-1.23
2023-02-09T20:36:41.289Z,-1.37
2023-02-09T20:42:02.298Z,-1.38
2023-02-09T20:47:03.108Z,-1.35
2023-02-09T20:52:05.345Z,-1.26
2023-02-09T20:57:06.402Z,-1.31
2023-02-09T21:02:07.131Z,-1.27
2023-02-09T21:07:09.286Z,-1.26
2023-02-09T21:12:10.030Z,-1.30
2023-02-09T21:17:10.981Z,-1.36
2023-02-09T21:22:14.678Z,-1.36
2023-02-09T21:27:15.322Z,-1.39
2023-02-09T21:32:16.073Z,-1.40
2023-02-09T21:37:18.090Z,-1.55
2023-02-09T21:42:28.682Z,-1.45
2023-02-09T21:47:30.565Z,-1.50
2023-02-09T21:52:34.527Z,-1.66
2023-02-09T21:57:35.479Z,-1.60
2023-02-09T22:02:36.985Z,-1.64
2023-02-09T22:07:39.105Z,-1.75
2023-02-09T22:12:40.899Z,-1.75
2023-02-09T22:17:41.574Z,-1.87
2023-02-09T22:22:45.400Z,-1.87
2023-02-09T22:27:46.077Z,-1.82
2023-02-09T22:32:46.820Z,-1.89
2023-02-09T22:37:48.861Z,-1.97
2023-02-09T22:42:49.710Z,-2.03
2023-02-09T22:47:50.389Z,-2.15
2023-02-09T22:52:52.382Z,-2.09
2023-02-09T22:57:53.060Z,-2.02
2023-02-09T23:02:54.313Z,-2.21
2023-02-09T23:07:56.309Z,-2.18
2023-02-09T23:12:56.959Z,-2.20
2023-02-09T23:17:57.600Z,-2.18
2023-02-09T23:23:01.418Z,-2.31
2023-02-09T23:28:02.198Z,-2.46
2023-02-09T23:33:02.958Z,-2.39
2023-02-09T23:38:04.983Z,-2.48
2023-02-09T23:43:05.737Z,-2.51
2023-02-09T23:48:07.194Z,-2.64
2023-02-09T23:53:09.177Z,-2.53
2023-02-09T23:58:09.825Z,-2.59
